Time;durP1;ratioP1;P1;durP2;ratioP2;P2;SDS_P1;SDS_P2;PMS_P1;PMS_P2;Temp;Humidity;BMP_temperature;BMP_pressure;BME280_temperature;BME280_humidity;BME280_pressure;Samples;Min_cycle;Max_cycle;Signal;HPM_P1;HPM_P2
2022/10/10 00:01:34;;;;;;;3.35;1.15;;;;;;;7.09;100.00;100391.88;5027933;28;20060;-45
2022/10/10 00:04:00;;;;;;;0.90;0.10;;;;;;;7.06;100.00;100387.75;5047342;28;20172;-45
2022/10/10 00:06:26;;;;;;;5.68;0.55;;;;;;;7.06;100.00;100397.47;5044807;28;20055;-45
2022/10/10 00:08:52;;;;;;;4.70;1.02;;;;;;;7.07;100.00;100391.22;5037629;28;20075;-47
2022/10/10 00:11:20;;;;;;;0.73;0.47;;;;;;;7.08;100.00;100384.97;5040561;28;20048;-46
2022/10/10 00:13:46;;;;;;;1.88;0.30;;;;;;;7.09;100.00;100374.22;5045002;28;20037;-48
2022/10/10 00:16:12;;;;;;;0.93;0.20;;;;;;;7.11;100.00;100382.78;5046549;28;20044;-46
2022/10/10 00:18:39;;;;;;;4.30;0.30;;;;;;;7.13;100.00;100378.19;5036120;28;20034;-47
2022/10/10 00:21:05;;;;;;;0.52;0.20;;;;;;;7.09;100.00;100386.59;5035951;28;20017;-47
2022/10/10 00:23:31;;;;;;;2.22;1.08;;;;;;;7.01;100.00;100384.81;5042442;28;20045;-46
2022/10/10 00:25:56;;;;;;;2.55;0.43;;;;;;;6.99;100.00;100387.59;5044982;28;20029;-47
2022/10/10 00:28:22;;;;;;;2.38;0.55;;;;;;;6.93;100.00;100388.28;5043201;28;20490;-47
2022/10/10 00:30:47;;;;;;;2.30;0.85;;;;;;;6.90;100.00;100393.91;5032319;28;20072;-45
2022/10/10 00:33:13;;;;;;;2.22;0.70;;;;;;;6.89;100.00;100383.53;5032939;28;20036;-46
2022/10/10 00:35:40;;;;;;;3.22;0.50;;;;;;;6.87;100.00;100385.53;5029369;28;20049;-47
2022/10/10 00:38:05;;;;;;;1.33;0.50;;;;;;;6.85;100.00;100396.22;5038478;28;20021;-46
2022/10/10 00:40:31;;;;;;;0.60;0.28;;;;;;;6.84;100.00;100391.97;5037582;28;20029;-50
2022/10/10 00:42:56;;;;;;;0.95;0.90;;;;;;;6.77;100.00;100391.78;5041789;28;20036;-49
2022/10/10 00:45:28;;;;;;;1.80;0.95;;;;;;;6.73;100.00;100397.56;5036922;28;20024;-46
2022/10/10 00:48:25;;;;;;;2.25;0.57;;;;;;;6.67;100.00;100387.72;5034824;28;20030;-49
2022/10/10 00:50:59;;;;;;;6.63;1.13;;;;;;;6.62;100.00;100390.84;5036029;28;20041;-47
2022/10/10 00:53:29;;;;;;;5.57;1.52;;;;;;;6.60;100.00;100392.00;5038914;28;20026;-47
2022/10/10 00:55:55;;;;;;;2.80;0.15;;;;;;;6.61;100.00;100393.63;5038916;28;20029;-49
2022/10/10 00:58:23;;;;;;;1.52;0.57;;;;;;;6.62;100.00;100395.28;5038313;28;20028;-45
2022/10/10 01:00:48;;;;;;;0.93;0.20;;;;;;;6.58;100.00;100394.78;5031223;28;20036;-47
2022/10/10 01:03:14;;;;;;;1.90;0.28;;;;;;;6.58;100.00;100399.22;5037106;28;20482;-47
2022/10/10 01:05:40;;;;;;;0.82;0.57;;;;;;;6.60;100.00;100398.06;5040728;28;21312;-49
2022/10/10 01:08:06;;;;;;;1.27;0.20;;;;;;;6.64;100.00;100395.94;5031211;28;20071;-46
2022/10/10 01:10:38;;;;;;;0.63;0.63;;;;;;;6.69;100.00;100391.00;5033856;28;20478;-45
2022/10/10 01:13:25;;;;;;;0.30;0.30;;;;;;;6.76;100.00;100391.94;5037673;28;20032;-45
2022/10/10 01:16:02;;;;;;;2.45;0.35;;;;;;;6.83;100.00;100394.75;5029821;28;20613;-44
2022/10/10 01:18:52;;;;;;;3.40;0.88;;;;;;;6.94;100.00;100395.22;5039766;28;20441;-46
2022/10/10 01:21:41;;;;;;;1.92;0.45;;;;;;;6.96;100.00;100395.84;5027746;28;20065;-47
2022/10/10 01:24:25;;;;;;;1.70;0.10;;;;;;;6.95;100.00;100396.03;5035288;28;20060;-48
2022/10/10 01:27:10;;;;;;;1.73;0.85;;;;;;;6.97;100.00;100396.69;5042869;28;20053;-47
2022/10/10 01:29:46;;;;;;;1.60;0.50;;;;;;;6.99;100.00;100398.16;5042619;28;20114;-45
2022/10/10 01:32:46;;;;;;;1.27;0.43;;;;;;;7.07;100.00;100399.94;5037936;28;20077;-46
2022/10/10 01:35:29;;;;;;;0.30;0.20;;;;;;;7.13;100.00;100399.28;5035482;28;20128;-45
2022/10/10 01:37:57;;;;;;;3.13;0.30;;;;;;;7.17;100.00;100408.47;5034126;28;20230;-44
2022/10/10 01:40:32;;;;;;;2.20;0.93;;;;;;;7.19;100.00;100406.50;5039751;28;20036;-44
2022/10/10 01:43:01;;;;;;;1.15;0.30;;;;;;;7.20;100.00;100404.66;5037643;28;20487;-45
2022/10/10 01:45:27;;;;;;;0.98;0.20;;;;;;;7.18;100.00;100402.22;5033337;28;20030;-44
2022/10/10 01:47:56;;;;;;;0.40;0.25;;;;;;;7.26;100.00;100403.19;5038595;28;20033;-45
2022/10/10 01:50:25;;;;;;;0.88;0.35;;;;;;;7.29;100.00;100392.28;5031516;28;20542;-44
2022/10/10 01:53:09;;;;;;;2.60;0.20;;;;;;;7.36;100.00;100404.63;5037866;28;20558;-44
2022/10/10 01:56:11;;;;;;;2.05;0.52;;;;;;;7.45;100.00;100405.41;5037825;28;20024;-45
2022/10/10 01:58:42;;;;;;;;;;;;;;;7.50;100.00;100403.06;5037694;28;20068;-48
2022/10/10 02:01:14;;;;;;;4.60;0.30;;;;;;;7.50;100.00;100403.06;5031285;28;19917;-45
2022/10/10 02:03:45;;;;;;;3.38;1.35;;;;;;;7.54;100.00;100400.91;5034986;28;20486;-47
2022/10/10 02:06:34;;;;;;;1.33;0.30;;;;;;;7.56;100.00;100407.66;5038900;28;20032;-44
2022/10/10 02:09:05;;;;;;;1.65;0.57;;;;;;;7.61;100.00;100402.66;5033267;28;20079;-47
2022/10/10 02:11:35;;;;;;;3.15;1.38;;;;;;;7.65;100.00;100403.16;5044174;28;20046;-46
2022/10/10 02:14:32;;;;;;;2.42;1.13;;;;;;;7.75;100.00;100405.59;5045620;28;20116;-47
2022/10/10 02:17:00;;;;;;;5.55;0.38;;;;;;;7.78;100.00;100395.47;5034761;28;20094;-44
2022/10/10 02:19:26;;;;;;;0.63;0.43;;;;;;;7.82;100.00;100403.88;5040166;28;20458;-46
2022/10/10 02:21:53;;;;;;;2.15;0.60;;;;;;;7.83;100.00;100401.06;5037106;28;21028;-46
2022/10/10 02:24:21;;;;;;;0.60;0.40;;;;;;;7.85;100.00;100407.00;5038808;28;20093;-46
2022/10/10 02:26:55;;;;;;;0.30;0.30;;;;;;;7.84;100.00;100405.34;5043559;28;20045;-47
2022/10/10 02:29:27;;;;;;;0.77;0.38;;;;;;;7.84;100.00;100405.34;5038410;28;20021;-48
2022/10/10 02:32:04;;;;;;;0.63;0.30;;;;;;;7.89;100.00;100407.44;5040506;28;20035;-46
2022/10/10 02:34:35;;;;;;;1.88;0.32;;;;;;;7.91;100.00;100410.75;5043179;28;20029;-45
2022/10/10 02:37:06;;;;;;;3.72;0.47;;;;;;;7.98;100.00;100410.88;5039448;28;20029;-46
2022/10/10 02:39:35;;;;;;;1.83;0.85;;;;;;;8.04;100.00;100408.34;5042517;28;20036;-47
2022/10/10 02:42:04;;;;;;;1.85;0.43;;;;;;;8.10;100.00;100412.09;5043598;28;20044;-47
2022/10/10 02:44:30;;;;;;;1.38;0.30;;;;;;;8.16;100.00;100406.13;5031117;28;20021;-45
2022/10/10 02:46:56;;;;;;;2.10;0.50;;;;;;;8.18;100.00;100396.19;5041852;28;20427;-46
2022/10/10 02:49:30;;;;;;;1.42;0.70;;;;;;;8.25;100.00;100398.94;5044948;28;20032;-46
2022/10/10 02:51:55;;;;;;;2.13;0.38;;;;;;;8.28;100.00;100394.13;5043029;28;20029;-47
2022/10/10 02:54:21;;;;;;;1.65;0.30;;;;;;;8.32;100.00;100386.66;5046412;28;20028;-48
2022/10/10 02:56:46;;;;;;;0.80;0.55;;;;;;;8.30;100.00;100383.38;5035080;28;20020;-45
2022/10/10 02:59:12;;;;;;;1.48;0.30;;;;;;;8.28;100.00;100380.91;5044689;28;20423;-48
2022/10/10 03:01:37;;;;;;;0.50;0.38;;;;;;;8.28;100.00;100380.09;5033493;28;20017;-45
2022/10/10 03:04:02;;;;;;;3.08;0.65;;;;;;;8.28;100.00;100382.72;5034365;28;20025;-52
2022/10/10 03:06:28;;;;;;;8.10;1.10;;;;;;;8.27;100.00;100375.81;5043628;28;20534;-48
2022/10/10 03:08:53;;;;;;;1.85;0.50;;;;;;;8.28;100.00;100378.25;5031370;28;20052;-46
2022/10/10 03:11:18;;;;;;;1.65;0.68;;;;;;;8.30;100.00;100383.38;5041055;28;20029;-47
2022/10/10 03:13:44;;;;;;;6.85;0.50;;;;;;;8.35;100.00;100386.31;5043226;28;20040;-47
2022/10/10 03:16:10;;;;;;;0.82;0.43;;;;;;;8.37;100.00;100388.78;5040520;28;20033;-48
2022/10/10 03:18:35;;;;;;;1.50;0.88;;;;;;;8.35;100.00;100396.88;5030894;28;20055;-49
2022/10/10 03:21:01;;;;;;;3.67;0.77;;;;;;;8.35;100.00;100396.88;5031163;28;20475;-47
2022/10/10 03:23:26;;;;;;;2.05;0.85;;;;;;;8.35;100.00;100394.25;5036864;28;20033;-46
2022/10/10 03:25:51;;;;;;;0.73;0.20;;;;;;;8.37;100.00;100386.16;5040840;28;20082;-46
2022/10/10 03:28:17;;;;;;;0.85;0.43;;;;;;;8.39;100.00;100397.31;5031287;28;20022;-48
2022/10/10 03:30:42;;;;;;;3.22;0.75;;;;;;;8.41;100.00;100398.81;5039625;28;20033;-47
2022/10/10 03:33:09;;;;;;;0.65;0.20;;;;;;;8.45;100.00;100399.31;5035714;28;20463;-47
2022/10/10 03:35:34;;;;;;;3.05;0.25;;;;;;;8.50;100.00;100399.59;5035033;28;20033;-47
2022/10/10 03:38:00;;;;;;;1.30;0.32;;;;;;;8.53;100.00;100407.16;5043009;28;20025;-45
2022/10/10 03:40:26;;;;;;;1.00;0.35;;;;;;;8.54;100.00;100402.69;5036626;28;20048;-46
2022/10/10 03:42:52;;;;;;;0.40;0.30;;;;;;;8.56;100.00;100413.91;5037941;28;20029;-48
2022/10/10 03:45:17;;;;;;;0.20;0.20;;;;;;;8.56;100.00;100421.84;5035969;28;20031;-45
2022/10/10 03:47:43;;;;;;;1.65;0.63;;;;;;;8.57;100.00;100416.38;5039535;28;20033;-48
2022/10/10 03:50:09;;;;;;;0.50;0.20;;;;;;;8.57;100.00;100416.38;5036405;28;20088;-45
2022/10/10 03:52:34;;;;;;;0.93;0.28;;;;;;;8.60;100.00;100407.28;5043660;28;20425;-47
2022/10/10 03:55:00;;;;;;;3.30;0.60;;;;;;;8.61;100.00;100420.28;5042635;28;20218;-51
2022/10/10 03:57:25;;;;;;;1.75;0.32;;;;;;;8.64;100.00;100422.56;5036734;28;20029;-51
2022/10/10 03:59:51;;;;;;;0.60;0.50;;;;;;;8.67;100.00;100426.69;5034260;28;20033;-48
2022/10/10 04:02:16;;;;;;;0.52;0.52;;;;;;;8.71;100.00;100427.97;5038900;28;20025;-45
2022/10/10 04:04:41;;;;;;;3.33;0.52;;;;;;;8.74;100.00;100440.81;5036175;28;20025;-45
2022/10/10 04:07:07;;;;;;;4.93;0.70;;;;;;;8.76;100.00;100438.81;5038899;28;20041;-48
2022/10/10 04:09:32;;;;;;;3.20;0.35;;;;;;;8.78;100.00;100441.28;5036866;28;20123;-50
2022/10/10 04:11:58;;;;;;;4.20;0.57;;;;;;;8.79;100.00;100446.38;5040457;28;20037;-46
2022/10/10 04:14:24;;;;;;;3.53;0.30;;;;;;;8.81;100.00;100447.03;5042193;28;20033;-49
2022/10/10 04:16:49;;;;;;;4.50;0.80;;;;;;;8.82;100.00;100459.25;5034070;28;20618;-47
2022/10/10 04:19:14;;;;;;;1.35;0.85;;;;;;;8.82;100.00;100461.06;5038248;28;20064;-48
2022/10/10 04:21:40;;;;;;;4.70;0.73;;;;;;;8.83;100.00;100463.56;5045953;28;20545;-45
2022/10/10 04:24:05;;;;;;;10.25;0.82;;;;;;;8.86;100.00;100462.38;5039390;28;20477;-47
2022/10/10 04:26:31;;;;;;;1.42;0.40;;;;;;;8.87;100.00;100467.47;5040096;28;20138;-49
2022/10/10 04:28:56;;;;;;;1.92;0.55;;;;;;;8.90;100.00;100468.91;5030783;28;20067;-47
2022/10/10 04:31:22;;;;;;;1.08;0.77;;;;;;;8.90;100.00;100467.09;5037145;28;20500;-48
2022/10/10 04:33:48;;;;;;;0.90;0.50;;;;;;;8.91;100.00;100475.88;5043173;28;20029;-49
2022/10/10 04:36:13;;;;;;;0.65;0.55;;;;;;;8.91;100.00;100481.97;5032975;28;20088;-50
2022/10/10 04:38:38;;;;;;;2.53;0.73;;;;;;;8.92;100.00;100480.97;5041863;28;20071;-49
2022/10/10 04:41:04;;;;;;;1.58;0.40;;;;;;;8.91;100.00;100484.63;5032748;28;20111;-51
2022/10/10 04:43:29;;;;;;;4.82;0.38;;;;;;;8.93;100.00;100490.56;5039026;28;20045;-52
2022/10/10 04:45:57;;;;;;;0.50;0.50;;;;;;;8.96;100.00;100489.38;5035878;28;20033;-49
2022/10/10 04:48:23;;;;;;;1.90;0.52;;;;;;;8.94;100.00;100484.25;5037115;28;20083;-50
2022/10/10 04:50:53;;;;;;;2.25;1.10;;;;;;;8.94;100.00;100489.53;5038524;28;20029;-51
2022/10/10 04:53:18;;;;;;;0.82;0.40;;;;;;;8.94;100.00;100494.84;5034735;28;20032;-52
2022/10/10 04:55:44;;;;;;;1.75;0.65;;;;;;;8.95;100.00;100491.19;5033412;28;20029;-52
2022/10/10 04:58:09;;;;;;;0.50;0.40;;;;;;;8.99;100.00;100488.19;5044223;28;20029;-50
2022/10/10 05:00:35;;;;;;;2.45;0.47;;;;;;;9.00;100.00;100492.47;5033644;28;20127;-54
2022/10/10 05:03:00;;;;;;;1.42;0.50;;;;;;;9.03;100.00;100497.38;5035240;28;20128;-56
2022/10/10 05:05:25;;;;;;;2.95;0.57;;;;;;;9.02;100.00;100496.56;5031070;28;20033;-54
2022/10/10 05:07:51;;;;;;;3.65;0.63;;;;;;;9.06;100.00;100500.53;5033134;28;20040;-53
2022/10/10 05:10:16;;;;;;;0.93;0.88;;;;;;;9.05;100.00;100500.69;5033421;28;20041;-52
2022/10/10 05:12:42;;;;;;;0.77;0.52;;;;;;;9.05;100.00;100505.97;5037116;28;20375;-52
2022/10/10 05:15:07;;;;;;;1.02;0.47;;;;;;;9.06;100.00;100508.44;5041444;28;20152;-53
2022/10/10 05:17:32;;;;;;;1.70;1.10;;;;;;;9.05;100.00;100527.13;5037606;28;20498;-54
2022/10/10 05:19:58;;;;;;;3.22;0.55;;;;;;;9.05;100.00;100529.78;5034162;28;20025;-53
2022/10/10 05:22:23;;;;;;;0.17;0.15;;;;;;;9.07;100.00;100528.59;5039364;28;20047;-55
2022/10/10 05:24:49;;;;;;;1.00;0.50;;;;;;;9.13;100.00;100525.22;5032281;28;20052;-52
2022/10/10 05:27:14;;;;;;;0.85;0.30;;;;;;;9.20;100.00;100530.63;5035378;28;20465;-51
2022/10/10 05:29:39;;;;;;;3.17;0.73;;;;;;;9.23;100.00;100540.03;5038337;28;20033;-49
2022/10/10 05:32:05;;;;;;;1.27;0.80;;;;;;;9.25;100.00;100538.84;5042324;28;20518;-52
2022/10/10 05:34:30;;;;;;;2.83;0.60;;;;;;;9.26;100.00;100553.69;5031721;28;20036;-53
2022/10/10 05:36:56;;;;;;;6.28;1.48;;;;;;;9.26;100.00;100564.28;5042540;28;20052;-54
2022/10/10 05:39:22;;;;;;;4.38;1.00;;;;;;;9.26;100.00;100580.16;5042813;28;20066;-52
2022/10/10 05:41:48;;;;;;;1.85;1.10;;;;;;;9.42;100.00;100565.94;5040788;28;20430;-53
2022/10/10 05:44:13;;;;;;;0.98;0.60;;;;;;;9.87;100.00;100579.22;5048915;28;20047;-52
2022/10/10 05:46:38;;;;;;;0.40;0.40;;;;;;;10.14;100.00;100590.94;5042648;28;20030;-51
2022/10/10 05:49:04;;;;;;;1.05;0.10;;;;;;;10.27;100.00;100604.34;5045424;28;20031;-48
2022/10/10 05:51:29;;;;;;;1.08;0.90;;;;;;;10.35;100.00;100609.59;5043814;28;20032;-49
2022/10/10 05:53:56;;;;;;;0.65;0.20;;;;;;;10.31;100.00;100618.09;5042412;28;20155;-50
2022/10/10 05:56:22;;;;;;;3.05;0.60;;;;;;;10.28;100.00;100623.78;5043449;28;20067;-50
2022/10/10 05:58:50;;;;;;;0.80;0.10;;;;;;;10.23;100.00;100635.72;5042051;28;20032;-55
2022/10/10 06:01:16;;;;;;;2.72;0.28;;;;;;;10.16;100.00;100642.75;5039246;28;20056;-48
2022/10/10 06:03:41;;;;;;;1.42;0.82;;;;;;;10.16;100.00;100649.88;5043356;28;20443;-50
2022/10/10 06:06:07;;;;;;;0.50;0.00;;;;;;;10.13;100.00;100648.41;5036897;28;20026;-53
2022/10/10 06:08:33;;;;;;;0.20;0.10;;;;;;;10.05;100.00;100654.63;5037661;28;20047;-49
2022/10/10 06:11:06;;;;;;;0.93;0.65;;;;;;;10.02;100.00;100665.59;5036818;28;20033;-51
2022/10/10 06:13:32;;;;;;;2.45;0.20;;;;;;;9.97;100.00;100691.81;5035601;28;20029;-52
2022/10/10 06:15:57;;;;;;;3.25;0.55;;;;;;;9.83;100.00;100705.84;5039622;28;20032;-47
2022/10/10 06:18:23;;;;;;;3.65;0.38;;;;;;;9.48;100.00;100705.53;5043130;28;20385;-50
2022/10/10 06:20:48;;;;;;;22.73;3.30;;;;;;;9.16;100.00;100725.94;5039388;28;20025;-47
2022/10/10 06:23:14;;;;;;;7.93;0.93;;;;;;;8.95;100.00;100713.31;5035648;28;20034;-49
2022/10/10 06:25:39;;;;;;;3.92;0.30;;;;;;;8.85;100.00;100714.53;5036443;28;20037;-50
2022/10/10 06:28:04;;;;;;;1.05;0.40;;;;;;;8.79;100.00;100731.94;5041724;28;20053;-52
2022/10/10 06:30:31;;;;;;;7.35;1.38;;;;;;;8.73;100.00;100732.63;5043255;28;20056;-51
2022/10/10 06:32:57;;;;;;;2.42;0.15;;;;;;;8.68;100.00;100740.25;5041649;28;20494;-52
2022/10/10 06:35:23;;;;;;;6.32;1.25;;;;;;;8.66;100.00;100742.25;5039026;28;20037;-49
2022/10/10 06:37:48;;;;;;;2.75;1.13;;;;;;;8.63;100.00;100738.13;5044268;28;20025;-52
2022/10/10 06:40:13;;;;;;;2.72;0.20;;;;;;;8.62;100.00;100749.69;5041202;28;20048;-49
2022/10/10 06:42:39;;;;;;;2.63;0.65;;;;;;;8.59;100.00;100749.19;5041690;28;20040;-49
2022/10/10 06:45:05;;;;;;;6.43;2.33;;;;;;;8.56;100.00;100768.88;5040814;28;20087;-51
2022/10/10 06:47:30;;;;;;;7.18;1.00;;;;;;;8.54;100.00;100759.47;5034619;28;20026;-52
2022/10/10 06:49:55;;;;;;;5.03;0.57;;;;;;;8.52;100.00;100781.59;5046487;28;20107;-52
2022/10/10 06:52:21;;;;;;;2.38;0.10;;;;;;;8.52;100.00;100776.31;5044687;28;20041;-52
2022/10/10 06:54:46;;;;;;;3.20;0.43;;;;;;;8.54;100.00;100799.09;5031029;28;20075;-52
2022/10/10 06:57:12;;;;;;;2.40;1.00;;;;;;;8.50;100.00;100804.72;5029099;28;20346;-54
2022/10/10 06:59:37;;;;;;;3.85;1.55;;;;;;;8.51;100.00;100808.19;5044490;28;20033;-53
2022/10/10 07:02:03;;;;;;;1.75;0.38;;;;;;;8.48;100.00;100804.06;5043023;28;20038;-50
2022/10/10 07:04:28;;;;;;;3.35;0.70;;;;;;;8.46;100.00;100815.81;5040472;28;20024;-52
2022/10/10 07:06:53;;;;;;;4.65;0.95;;;;;;;8.47;100.00;100822.75;5039767;28;20029;-54
2022/10/10 07:09:19;;;;;;;1.10;0.38;;;;;;;8.54;100.00;100833.47;5038105;28;20049;-54
2022/10/10 07:11:44;;;;;;;5.60;0.47;;;;;;;8.59;100.00;100841.72;5036778;28;20482;-53
2022/10/10 07:14:11;;;;;;;0.80;0.30;;;;;;;8.64;100.00;100849.97;5042295;28;20027;-50
2022/10/10 07:16:36;;;;;;;6.90;0.45;;;;;;;8.66;100.00;100856.72;5038023;28;20075;-53
2022/10/10 07:19:02;;;;;;;1.33;0.40;;;;;;;8.70;100.00;100857.22;5047843;28;20065;-51
2022/10/10 07:21:27;;;;;;;1.85;0.30;;;;;;;8.70;100.00;100854.59;5042434;28;20116;-53
2022/10/10 07:23:52;;;;;;;9.25;1.05;;;;;;;8.71;100.00;100867.63;5037484;28;20068;-53
2022/10/10 07:26:21;;;;;;;6.43;0.73;;;;;;;8.71;100.00;100867.63;5032829;28;20069;-51
2022/10/10 07:28:47;;;;;;;4.38;0.20;;;;;;;8.72;100.00;100865.78;5033900;28;20352;-52
2022/10/10 07:31:12;;;;;;;4.38;0.40;;;;;;;8.74;100.00;100879.66;5028847;28;20030;-49
2022/10/10 07:33:43;;;;;;;9.77;0.73;;;;;;;8.76;100.00;100882.97;5032804;28;20126;-51
2022/10/10 07:36:09;;;;;;;5.80;0.90;;;;;;;8.74;100.00;100879.66;5036126;28;20549;-53
2022/10/10 07:38:36;;;;;;;11.65;0.20;;;;;;;8.73;100.00;100880.69;5035199;28;20412;-52
2022/10/10 07:41:08;;;;;;;4.53;0.40;;;;;;;8.69;100.00;100893.38;5034560;28;20029;-52
2022/10/10 07:43:36;;;;;;;2.33;0.70;;;;;;;8.62;100.00;100899.50;5033943;28;20666;-53
2022/10/10 07:46:02;;;;;;;5.93;0.43;;;;;;;8.56;100.00;100908.13;5027612;28;20036;-50
2022/10/10 07:48:29;;;;;;;2.03;0.10;;;;;;;8.50;100.00;100914.91;5033401;28;20032;-49
2022/10/10 07:50:54;;;;;;;4.35;1.13;;;;;;;8.44;100.00;100912.91;5029880;28;20386;-51
2022/10/10 07:53:19;;;;;;;7.82;0.85;;;;;;;8.44;100.00;100920.84;5030222;28;20032;-52
2022/10/10 07:55:45;;;;;;;6.95;1.98;;;;;;;8.57;100.00;100925.63;5033580;28;20099;-51
2022/10/10 07:58:11;;;;;;;7.00;0.93;;;;;;;8.66;100.00;100936.03;5035676;28;20028;-51
2022/10/10 08:00:39;;;;;;;3.08;0.32;;;;;;;8.73;100.00;100941.50;5032780;28;20061;-51
2022/10/10 08:03:06;;;;;;;5.20;0.43;;;;;;;8.85;100.00;100941.94;5036946;28;20486;-51
2022/10/10 08:05:31;;;;;;;4.35;0.95;;;;;;;8.94;100.00;100954.16;5037639;28;20068;-50
2022/10/10 08:07:56;;;;;;;3.50;1.15;;;;;;;9.02;100.00;100961.25;5036182;28;20104;-54
2022/10/10 08:10:22;;;;;;;5.13;0.50;;;;;;;9.05;100.00;100955.63;5030592;28;20090;-50
2022/10/10 08:12:47;;;;;;;4.45;1.33;;;;;;;9.04;100.00;100964.56;5031764;28;20025;-54
2022/10/10 08:15:12;;;;;;;5.05;0.52;;;;;;;9.00;100.00;100974.66;5032311;28;20049;-52
2022/10/10 08:17:38;;;;;;;3.00;0.60;;;;;;;9.01;100.00;100975.47;5033239;28;20501;-50
2022/10/10 08:20:04;;;;;;;6.88;0.47;;;;;;;8.97;100.00;100980.28;5034669;28;20025;-54
2022/10/10 08:22:29;;;;;;;3.30;0.65;;;;;;;8.89;100.00;100986.41;5031028;28;20029;-52
2022/10/10 08:24:55;;;;;;;3.58;0.73;;;;;;;8.83;100.00;100989.72;5028031;28;20018;-49
2022/10/10 08:27:20;;;;;;;5.13;1.02;;;;;;;8.91;100.00;100991.53;5028835;28;20050;-53
2022/10/10 08:29:46;;;;;;;8.90;1.80;;;;;;;9.08;100.00;100992.31;5035841;28;20114;-48
2022/10/10 08:32:11;;;;;;;5.78;0.55;;;;;;;9.22;100.00;100998.75;5029776;28;20053;-52
2022/10/10 08:34:37;;;;;;;8.68;0.75;;;;;;;9.36;100.00;101008.63;5032436;28;20048;-51
2022/10/10 08:37:02;;;;;;;6.68;0.90;;;;;;;9.54;100.00;101011.88;5029887;28;20037;-51
2022/10/10 08:39:27;;;;;;;5.00;0.68;;;;;;;9.69;100.00;101019.94;5033053;28;20029;-49
2022/10/10 08:41:59;;;;;;;10.43;0.70;;;;;;;9.88;100.00;101023.16;5031982;28;20036;-53
2022/10/10 08:44:30;;;;;;;3.47;1.17;;;;;;;10.01;100.00;101031.34;5032143;28;20148;-54
2022/10/10 08:47:00;;;;;;;0.88;0.45;;;;;;;10.12;100.00;101033.63;5033281;28;20124;-49
2022/10/10 08:49:34;;;;;;;20.92;1.15;;;;;;;10.23;100.00;101021.81;5039237;28;20025;-50
2022/10/10 08:52:15;;;;;;;1.85;0.50;;;;;;;10.32;100.00;101031.38;5030872;28;20029;-51
2022/10/10 08:54:41;;;;;;;4.22;0.90;;;;;;;10.39;100.00;101028.84;5034642;28;20029;-48
2022/10/10 08:57:26;;;;;;;5.05;0.65;;;;;;;10.44;100.00;101029.97;5032302;28;20056;-50
2022/10/10 08:59:58;;;;;;;2.28;0.40;;;;;;;10.51;100.00;101035.41;5033171;28;20071;-49
2022/10/10 09:02:42;;;;;;;4.85;0.75;;;;;;;10.56;100.00;101048.09;5031923;28;20173;-54
2022/10/10 09:05:15;;;;;;;13.88;2.67;;;;;;;10.62;100.00;101042.94;5030122;28;20029;-51
2022/10/10 09:07:52;;;;;;;4.30;0.60;;;;;;;10.69;100.00;101040.41;5032786;28;20401;-48
2022/10/10 09:10:37;;;;;;;6.90;1.50;;;;;;;10.73;100.00;101025.75;5032719;28;20060;-52
2022/10/10 09:13:11;;;;;;;8.85;1.35;;;;;;;10.86;100.00;101035.78;5037476;28;20509;-52
2022/10/10 09:15:53;;;;;;;6.57;0.55;;;;;;;10.89;100.00;101028.28;5032747;28;20434;-51
2022/10/10 09:18:18;;;;;;;;;;;;;;;10.92;100.00;101035.06;5044190;28;20048;-52
2022/10/10 09:20:51;;;;;;;3.97;1.03;;;;;;;11.00;100.00;101036.81;5033831;28;19956;-51
2022/10/10 09:23:27;;;;;;;8.30;1.00;;;;;;;11.02;100.00;101034.78;5039512;28;20837;-50
2022/10/10 09:26:13;;;;;;;4.78;1.38;;;;;;;11.15;100.00;101045.59;5041678;28;20524;-48
2022/10/10 09:29:15;;;;;;;4.95;0.43;;;;;;;11.22;100.00;101040.41;5043862;28;20028;-51
2022/10/10 09:31:44;;;;;;;9.30;0.90;;;;;;;11.33;100.00;101047.91;5039412;28;20037;-50
2022/10/10 09:34:15;;;;;;;8.68;1.98;;;;;;;11.36;100.00;101036.97;5035884;28;20104;-49
2022/10/10 09:36:41;;;;;;;3.88;0.63;;;;;;;11.42;100.00;101043.38;5038743;28;20044;-50
2022/10/10 09:39:31;;;;;;;6.68;1.38;;;;;;;11.49;100.00;101042.44;5047290;28;20052;-48
2022/10/10 09:42:01;;;;;;;5.03;1.27;;;;;;;11.60;100.00;101041.16;5039641;28;20119;-49
2022/10/10 09:44:27;;;;;;;5.60;0.95;;;;;;;11.61;100.00;101056.09;5044849;28;20087;-50
2022/10/10 09:46:53;;;;;;;15.75;2.72;;;;;;;11.73;100.00;101059.13;5043529;28;20025;-48
2022/10/10 09:49:19;;;;;;;10.13;0.90;;;;;;;11.78;100.00;101054.06;5040559;28;20037;-48
2022/10/10 09:51:46;;;;;;;5.00;0.85;;;;;;;11.82;100.00;101055.31;5041197;28;20025;-52
2022/10/10 09:54:14;;;;;;;9.90;1.55;;;;;;;11.83;100.00;101056.19;5031366;28;20037;-49
2022/10/10 09:56:53;;;;;;;4.22;0.73;;;;;;;11.91;100.00;101050.78;5041152;28;20029;-52
2022/10/10 09:59:37;;;;;;;2.22;0.77;;;;;;;11.98;100.00;101055.16;5036975;28;20503;-48
2022/10/10 10:02:21;;;;;;;9.13;1.27;;;;;;;12.00;100.00;101055.81;5040251;28;20384;-46
2022/10/10 10:04:48;;;;;;;4.22;0.65;;;;;;;12.07;100.00;101068.34;5036225;28;20025;-50
2022/10/10 10:07:32;;;;;;;6.90;0.43;;;;;;;12.08;100.00;101062.88;5036248;28;20061;-49
2022/10/10 10:10:10;;;;;;;1.90;0.50;;;;;;;12.25;100.00;101070.59;5042169;28;20056;-50
2022/10/10 10:12:40;;;;;;;5.82;0.95;;;;;;;12.26;100.00;101064.25;5050364;28;20116;-49
2022/10/10 10:15:15;;;;;;;3.38;0.63;;;;;;;12.31;100.00;101073.31;5039714;28;20025;-46
2022/10/10 10:17:41;;;;;;;6.88;0.85;;;;;;;12.40;100.00;101079.38;5044041;28;20486;-48
2022/10/10 10:20:29;;;;;;;10.02;1.33;;;;;;;12.65;100.00;101080.66;5043911;28;20025;-50
2022/10/10 10:22:55;;;;;;;18.92;1.23;;;;;;;12.72;100.00;101085.19;5058221;28;20040;-47
2022/10/10 10:25:29;;;;;;;4.78;0.35;;;;;;;12.62;100.00;101093.47;5044472;28;20029;-46
2022/10/10 10:28:09;;;;;;;4.63;0.98;;;;;;;12.60;100.00;101082.25;5040073;28;20397;-49
2022/10/10 10:30:36;;;;;;;7.53;1.58;;;;;;;12.64;100.00;101088.81;5056085;28;20029;-50
2022/10/10 10:33:07;;;;;;;4.78;1.23;;;;;;;12.77;100.00;101098.75;5048993;28;20029;-51
2022/10/10 10:35:43;;;;;;;3.33;0.60;;;;;;;12.94;100.00;101099.34;5044426;28;20037;-50
2022/10/10 10:38:30;;;;;;;8.80;0.55;;;;;;;13.08;100.00;101107.22;5045673;28;20471;-47
2022/10/10 10:41:30;;;;;;;7.70;0.73;;;;;;;13.29;100.00;101109.09;5044244;28;20390;-49
2022/10/10 10:44:14;;;;;;;8.98;0.55;;;;;;;13.36;100.00;101109.09;5056080;28;20024;-47
2022/10/10 10:46:54;;;;;;;3.00;0.40;;;;;;;13.38;100.00;101112.41;5041264;28;20033;-48
2022/10/10 10:49:39;;;;;;;4.38;1.00;;;;;;;13.29;100.00;101106.41;5047468;28;20550;-47
2022/10/10 10:52:16;;;;;;;4.32;0.93;;;;;;;13.13;100.00;101119.16;5052603;28;20139;-46
2022/10/10 10:55:01;;;;;;;8.90;0.80;;;;;;;13.29;100.00;101119.72;5044191;28;20025;-49
2022/10/10 10:57:49;;;;;;;5.75;0.63;;;;;;;13.26;100.00;101122.75;5047598;28;20119;-49
2022/10/10 11:00:17;;;;;;;7.68;0.93;;;;;;;13.34;100.00;101129.78;5054624;28;20033;-49
2022/10/10 11:03:15;;;;;;;4.65;0.63;;;;;;;13.45;100.00;101133.75;5053212;28;20037;-46
2022/10/10 11:05:47;;;;;;;7.45;1.20;;;;;;;13.50;100.00;101132.19;5045340;28;20406;-48
2022/10/10 11:08:46;;;;;;;3.08;0.65;;;;;;;13.53;100.00;101138.97;5044858;28;20036;-47
2022/10/10 11:11:21;;;;;;;6.13;0.40;;;;;;;13.51;100.00;101146.31;5037656;28;20103;-45
2022/10/10 11:14:10;;;;;;;10.65;1.27;;;;;;;13.40;100.00;101141.50;5042479;28;20023;-46
2022/10/10 11:16:48;;;;;;;8.43;0.85;;;;;;;13.49;100.00;101145.69;5043253;28;20065;-46
2022/10/10 11:19:13;;;;;;;11.10;0.93;;;;;;;13.46;100.00;101140.75;5048473;28;20017;-48
2022/10/10 11:21:55;;;;;;;4.10;0.75;;;;;;;13.63;100.00;101147.44;5057969;28;20021;-49
2022/10/10 11:24:29;;;;;;;10.88;1.30;;;;;;;13.87;100.00;101153.31;5036863;28;20041;-49
2022/10/10 11:26:59;;;;;;;14.85;0.95;;;;;;;14.02;100.00;101140.69;5040832;28;20068;-47
2022/10/10 11:29:46;;;;;;;3.95;0.47;;;;;;;13.88;100.00;101153.09;5034884;28;20439;-50
2022/10/10 11:32:16;;;;;;;3.15;0.90;;;;;;;13.98;100.00;101160.75;5036692;28;20175;-45
2022/10/10 11:35:02;;;;;;;6.72;0.55;;;;;;;14.06;100.00;101163.25;5043223;28;20024;-47